sensor_id;sensor_type;location;lat;lon;timestamp;P1;durP1;ratioP1;P2;durP2;ratioP2
65315;SDS011;51920;53.952;10.292;2022-10-15T00:01:07;14.07;;;8.85;;
65315;SDS011;51920;53.952;10.292;2022-10-15T00:03:37;14.65;;;8.60;;
65315;SDS011;51920;53.952;10.292;2022-10-15T00:06:08;13.93;;;8.47;;
65315;SDS011;51920;53.952;10.292;2022-10-15T00:08:35;17.30;;;9.20;;
65315;SDS011;51920;53.952;10.292;2022-10-15T00:11:01;15.07;;;8.60;;
65315;SDS011;51920;53.952;10.292;2022-10-15T00:13:28;16.40;;;9.37;;
65315;SDS011;51920;53.952;10.292;2022-10-15T00:15:53;14.25;;;9.07;;
65315;SDS011;51920;53.952;10.292;2022-10-15T00:18:19;15.00;;;8.90;;
65315;SDS011;51920;53.952;10.292;2022-10-15T00:20:44;15.30;;;8.97;;
65315;SDS011;51920;53.952;10.292;2022-10-15T00:23:09;20.03;;;9.50;;
65315;SDS011;51920;53.952;10.292;2022-10-15T00:25:34;23.27;;;9.70;;
65315;SDS011;51920;53.952;10.292;2022-10-15T00:28:00;17.00;;;9.63;;
65315;SDS011;51920;53.952;10.292;2022-10-15T00:30:26;19.73;;;9.75;;
65315;SDS011;51920;53.952;10.292;2022-10-15T00:32:51;19.03;;;9.80;;
65315;SDS011;51920;53.952;10.292;2022-10-15T00:35:17;20.33;;;9.73;;
65315;SDS011;51920;53.952;10.292;2022-10-15T00:37:42;19.83;;;10.00;;
65315;SDS011;51920;53.952;10.292;2022-10-15T00:40:08;21.27;;;10.70;;
65315;SDS011;51920;53.952;10.292;2022-10-15T00:42:35;19.33;;;10.10;;
65315;SDS011;51920;53.952;10.292;2022-10-15T00:45:01;18.45;;;9.75;;
65315;SDS011;51920;53.952;10.292;2022-10-15T00:47:28;18.17;;;9.27;;
65315;SDS011;51920;53.952;10.292;2022-10-15T00:50:04;19.00;;;10.00;;
65315;SDS011;51920;53.952;10.292;2022-10-15T00:52:35;21.33;;;10.40;;
65315;SDS011;51920;53.952;10.292;2022-10-15T00:55:06;24.93;;;11.23;;
65315;SDS011;51920;53.952;10.292;2022-10-15T00:57:34;21.83;;;10.15;;
65315;SDS011;51920;53.952;10.292;2022-10-15T01:00:03;24.63;;;11.30;;
65315;SDS011;51920;53.952;10.292;2022-10-15T01:02:32;22.77;;;10.95;;
65315;SDS011;51920;53.952;10.292;2022-10-15T01:04:57;23.30;;;11.13;;
65315;SDS011;51920;53.952;10.292;2022-10-15T01:07:23;22.37;;;11.10;;
65315;SDS011;51920;53.952;10.292;2022-10-15T01:09:48;24.07;;;11.03;;
65315;SDS011;51920;53.952;10.292;2022-10-15T01:15:28;26.20;;;11.35;;
65315;SDS011;51920;53.952;10.292;2022-10-15T01:17:58;23.27;;;10.82;;
65315;SDS011;51920;53.952;10.292;2022-10-15T01:20:40;24.37;;;11.07;;
65315;SDS011;51920;53.952;10.292;2022-10-15T01:28:48;26.30;;;11.98;;
65315;SDS011;51920;53.952;10.292;2022-10-15T01:34:00;29.67;;;12.77;;
65315;SDS011;51920;53.952;10.292;2022-10-15T01:36:55;27.65;;;11.80;;
65315;SDS011;51920;53.952;10.292;2022-10-15T01:39:40;28.15;;;12.00;;
65315;SDS011;51920;53.952;10.292;2022-10-15T01:44:49;29.02;;;12.82;;
65315;SDS011;51920;53.952;10.292;2022-10-15T01:47:41;25.43;;;12.30;;
65315;SDS011;51920;53.952;10.292;2022-10-15T01:50:12;28.73;;;12.73;;
65315;SDS011;51920;53.952;10.292;2022-10-15T01:52:39;28.75;;;12.90;;
65315;SDS011;51920;53.952;10.292;2022-10-15T01:55:07;29.58;;;12.75;;
65315;SDS011;51920;53.952;10.292;2022-10-15T01:57:36;28.05;;;12.63;;
65315;SDS011;51920;53.952;10.292;2022-10-15T02:00:03;33.03;;;13.07;;
65315;SDS011;51920;53.952;10.292;2022-10-15T02:02:37;30.15;;;13.57;;
65315;SDS011;51920;53.952;10.292;2022-10-15T02:05:06;33.00;;;13.90;;
65315;SDS011;51920;53.952;10.292;2022-10-15T02:07:44;32.75;;;13.95;;
65315;SDS011;51920;53.952;10.292;2022-10-15T02:10:24;34.38;;;13.80;;
65315;SDS011;51920;53.952;10.292;2022-10-15T02:13:12;30.33;;;13.63;;
65315;SDS011;51920;53.952;10.292;2022-10-15T02:16:05;31.38;;;13.13;;
65315;SDS011;51920;53.952;10.292;2022-10-15T02:21:34;32.72;;;13.55;;
65315;SDS011;51920;53.952;10.292;2022-10-15T02:24:08;33.95;;;13.85;;
65315;SDS011;51920;53.952;10.292;2022-10-15T02:26:39;29.70;;;12.77;;
65315;SDS011;51920;53.952;10.292;2022-10-15T02:29:07;36.85;;;14.75;;
65315;SDS011;51920;53.952;10.292;2022-10-15T02:31:36;32.33;;;13.00;;
65315;SDS011;51920;53.952;10.292;2022-10-15T02:34:06;36.22;;;14.27;;
65315;SDS011;51920;53.952;10.292;2022-10-15T02:36:36;32.00;;;13.68;;
65315;SDS011;51920;53.952;10.292;2022-10-15T02:39:05;34.83;;;13.87;;
65315;SDS011;51920;53.952;10.292;2022-10-15T02:41:34;36.83;;;14.75;;
65315;SDS011;51920;53.952;10.292;2022-10-15T02:44:01;34.00;;;13.77;;
65315;SDS011;51920;53.952;10.292;2022-10-15T02:46:28;37.53;;;14.68;;
65315;SDS011;51920;53.952;10.292;2022-10-15T02:48:53;39.60;;;14.57;;
65315;SDS011;51920;53.952;10.292;2022-10-15T02:51:19;39.00;;;15.17;;
65315;SDS011;51920;53.952;10.292;2022-10-15T02:53:44;37.35;;;14.50;;
65315;SDS011;51920;53.952;10.292;2022-10-15T02:56:10;37.17;;;14.23;;
65315;SDS011;51920;53.952;10.292;2022-10-15T02:58:36;36.35;;;13.90;;
65315;SDS011;51920;53.952;10.292;2022-10-15T03:01:02;39.40;;;13.70;;
65315;SDS011;51920;53.952;10.292;2022-10-15T03:03:27;38.75;;;14.73;;
65315;SDS011;51920;53.952;10.292;2022-10-15T03:05:53;38.50;;;14.80;;
65315;SDS011;51920;53.952;10.292;2022-10-15T03:08:19;41.22;;;15.25;;
65315;SDS011;51920;53.952;10.292;2022-10-15T03:10:44;37.60;;;14.20;;
65315;SDS011;51920;53.952;10.292;2022-10-15T03:13:11;42.72;;;15.40;;
65315;SDS011;51920;53.952;10.292;2022-10-15T03:15:43;39.15;;;14.57;;
65315;SDS011;51920;53.952;10.292;2022-10-15T03:18:09;37.83;;;14.27;;
65315;SDS011;51920;53.952;10.292;2022-10-15T03:20:34;45.30;;;16.00;;
65315;SDS011;51920;53.952;10.292;2022-10-15T03:23:00;46.45;;;16.08;;
65315;SDS011;51920;53.952;10.292;2022-10-15T03:25:28;40.50;;;15.43;;
65315;SDS011;51920;53.952;10.292;2022-10-15T03:27:59;41.83;;;14.73;;
65315;SDS011;51920;53.952;10.292;2022-10-15T03:30:33;48.78;;;16.05;;
65315;SDS011;51920;53.952;10.292;2022-10-15T03:32:59;37.05;;;14.68;;
65315;SDS011;51920;53.952;10.292;2022-10-15T03:35:25;44.08;;;15.43;;
65315;SDS011;51920;53.952;10.292;2022-10-15T03:37:51;40.70;;;14.50;;
65315;SDS011;51920;53.952;10.292;2022-10-15T03:40:16;44.25;;;15.85;;
65315;SDS011;51920;53.952;10.292;2022-10-15T03:42:43;43.85;;;15.77;;
65315;SDS011;51920;53.952;10.292;2022-10-15T03:45:09;41.83;;;14.60;;
65315;SDS011;51920;53.952;10.292;2022-10-15T03:47:36;45.75;;;15.68;;
65315;SDS011;51920;53.952;10.292;2022-10-15T03:50:02;47.03;;;16.25;;
65315;SDS011;51920;53.952;10.292;2022-10-15T03:52:29;46.28;;;16.15;;
65315;SDS011;51920;53.952;10.292;2022-10-15T03:54:54;47.00;;;16.17;;
65315;SDS011;51920;53.952;10.292;2022-10-15T03:57:20;47.83;;;16.57;;
65315;SDS011;51920;53.952;10.292;2022-10-15T03:59:53;46.67;;;16.15;;
65315;SDS011;51920;53.952;10.292;2022-10-15T04:02:21;49.20;;;15.98;;
65315;SDS011;51920;53.952;10.292;2022-10-15T04:04:47;47.08;;;15.98;;
65315;SDS011;51920;53.952;10.292;2022-10-15T04:07:16;46.50;;;16.63;;
65315;SDS011;51920;53.952;10.292;2022-10-15T04:09:41;48.60;;;16.92;;
65315;SDS011;51920;53.952;10.292;2022-10-15T04:12:26;45.47;;;15.70;;
65315;SDS011;51920;53.952;10.292;2022-10-15T04:14:51;50.88;;;16.92;;
65315;SDS011;51920;53.952;10.292;2022-10-15T04:17:17;45.50;;;15.30;;
65315;SDS011;51920;53.952;10.292;2022-10-15T04:19:42;51.07;;;16.83;;
65315;SDS011;51920;53.952;10.292;2022-10-15T04:22:08;48.22;;;16.35;;
65315;SDS011;51920;53.952;10.292;2022-10-15T04:24:40;47.60;;;16.57;;
65315;SDS011;51920;53.952;10.292;2022-10-15T04:27:06;51.28;;;17.15;;
65315;SDS011;51920;53.952;10.292;2022-10-15T04:29:32;48.70;;;16.38;;
65315;SDS011;51920;53.952;10.292;2022-10-15T04:32:11;49.03;;;16.73;;
65315;SDS011;51920;53.952;10.292;2022-10-15T04:34:39;47.15;;;16.65;;
65315;SDS011;51920;53.952;10.292;2022-10-15T04:37:04;47.30;;;16.38;;
65315;SDS011;51920;53.952;10.292;2022-10-15T04:39:32;43.60;;;15.27;;
65315;SDS011;51920;53.952;10.292;2022-10-15T04:41:57;49.72;;;16.23;;
65315;SDS011;51920;53.952;10.292;2022-10-15T04:44:26;52.33;;;16.60;;
65315;SDS011;51920;53.952;10.292;2022-10-15T04:46:54;48.77;;;16.67;;
65315;SDS011;51920;53.952;10.292;2022-10-15T04:49:37;47.53;;;16.23;;
65315;SDS011;51920;53.952;10.292;2022-10-15T04:52:10;47.15;;;16.42;;
65315;SDS011;51920;53.952;10.292;2022-10-15T04:54:45;54.00;;;16.52;;
65315;SDS011;51920;53.952;10.292;2022-10-15T04:57:10;50.03;;;16.13;;
65315;SDS011;51920;53.952;10.292;2022-10-15T04:59:36;43.73;;;15.63;;
65315;SDS011;51920;53.952;10.292;2022-10-15T05:02:22;47.60;;;16.05;;
65315;SDS011;51920;53.952;10.292;2022-10-15T05:04:53;44.67;;;15.43;;
65315;SDS011;51920;53.952;10.292;2022-10-15T05:07:19;43.33;;;15.60;;
65315;SDS011;51920;53.952;10.292;2022-10-15T05:09:46;42.40;;;15.20;;
65315;SDS011;51920;53.952;10.292;2022-10-15T05:12:11;43.35;;;15.55;;
65315;SDS011;51920;53.952;10.292;2022-10-15T05:14:38;44.20;;;15.43;;
65315;SDS011;51920;53.952;10.292;2022-10-15T05:17:08;41.72;;;14.98;;
65315;SDS011;51920;53.952;10.292;2022-10-15T05:19:38;39.83;;;14.32;;
65315;SDS011;51920;53.952;10.292;2022-10-15T05:22:04;42.40;;;15.10;;
65315;SDS011;51920;53.952;10.292;2022-10-15T05:24:31;36.03;;;14.15;;
65315;SDS011;51920;53.952;10.292;2022-10-15T05:27:10;39.13;;;13.70;;
65315;SDS011;51920;53.952;10.292;2022-10-15T05:29:37;38.45;;;14.68;;
65315;SDS011;51920;53.952;10.292;2022-10-15T05:32:04;45.75;;;16.08;;
65315;SDS011;51920;53.952;10.292;2022-10-15T05:34:30;45.17;;;15.77;;
65315;SDS011;51920;53.952;10.292;2022-10-15T05:36:59;45.25;;;15.82;;
65315;SDS011;51920;53.952;10.292;2022-10-15T05:39:25;38.97;;;14.63;;
65315;SDS011;51920;53.952;10.292;2022-10-15T05:41:52;47.15;;;15.65;;
65315;SDS011;51920;53.952;10.292;2022-10-15T05:44:24;41.85;;;14.68;;
65315;SDS011;51920;53.952;10.292;2022-10-15T05:46:49;42.37;;;15.10;;
65315;SDS011;51920;53.952;10.292;2022-10-15T05:49:20;44.13;;;15.15;;
65315;SDS011;51920;53.952;10.292;2022-10-15T05:51:56;41.50;;;14.60;;
65315;SDS011;51920;53.952;10.292;2022-10-15T05:54:39;40.95;;;14.82;;
65315;SDS011;51920;53.952;10.292;2022-10-15T05:57:04;42.20;;;15.73;;
65315;SDS011;51920;53.952;10.292;2022-10-15T05:59:29;41.07;;;15.10;;
65315;SDS011;51920;53.952;10.292;2022-10-15T06:01:55;43.33;;;14.20;;
65315;SDS011;51920;53.952;10.292;2022-10-15T06:04:20;35.73;;;13.27;;
65315;SDS011;51920;53.952;10.292;2022-10-15T06:06:45;44.47;;;15.10;;
65315;SDS011;51920;53.952;10.292;2022-10-15T06:09:11;43.08;;;15.48;;
65315;SDS011;51920;53.952;10.292;2022-10-15T06:11:36;50.70;;;16.47;;
65315;SDS011;51920;53.952;10.292;2022-10-15T06:14:02;54.50;;;15.07;;
65315;SDS011;51920;53.952;10.292;2022-10-15T06:16:27;39.50;;;13.67;;
65315;SDS011;51920;53.952;10.292;2022-10-15T06:18:52;44.28;;;14.13;;
65315;SDS011;51920;53.952;10.292;2022-10-15T06:21:18;43.73;;;14.30;;
65315;SDS011;51920;53.952;10.292;2022-10-15T06:23:43;40.03;;;13.27;;
65315;SDS011;51920;53.952;10.292;2022-10-15T06:26:09;45.40;;;15.00;;
65315;SDS011;51920;53.952;10.292;2022-10-15T06:28:35;41.50;;;14.40;;
65315;SDS011;51920;53.952;10.292;2022-10-15T06:31:01;42.20;;;14.43;;
65315;SDS011;51920;53.952;10.292;2022-10-15T06:33:28;40.75;;;14.50;;
65315;SDS011;51920;53.952;10.292;2022-10-15T06:35:54;46.50;;;15.07;;
65315;SDS011;51920;53.952;10.292;2022-10-15T06:38:20;45.73;;;14.47;;
65315;SDS011;51920;53.952;10.292;2022-10-15T06:40:45;42.30;;;14.00;;
65315;SDS011;51920;53.952;10.292;2022-10-15T06:43:11;46.53;;;14.85;;
65315;SDS011;51920;53.952;10.292;2022-10-15T06:45:37;43.77;;;14.80;;
65315;SDS011;51920;53.952;10.292;2022-10-15T06:48:10;45.35;;;13.85;;
65315;SDS011;51920;53.952;10.292;2022-10-15T06:50:37;44.63;;;13.87;;
65315;SDS011;51920;53.952;10.292;2022-10-15T06:53:03;45.80;;;14.68;;
65315;SDS011;51920;53.952;10.292;2022-10-15T06:55:29;45.60;;;14.52;;
65315;SDS011;51920;53.952;10.292;2022-10-15T06:57:55;41.63;;;14.17;;
65315;SDS011;51920;53.952;10.292;2022-10-15T07:00:24;48.40;;;14.60;;
65315;SDS011;51920;53.952;10.292;2022-10-15T07:02:51;43.30;;;13.87;;
65315;SDS011;51920;53.952;10.292;2022-10-15T07:05:18;48.60;;;13.25;;
65315;SDS011;51920;53.952;10.292;2022-10-15T07:07:51;48.97;;;14.32;;
65315;SDS011;51920;53.952;10.292;2022-10-15T07:10:18;48.00;;;14.00;;
65315;SDS011;51920;53.952;10.292;2022-10-15T07:12:44;53.73;;;14.43;;
65315;SDS011;51920;53.952;10.292;2022-10-15T07:15:09;54.80;;;14.97;;
65315;SDS011;51920;53.952;10.292;2022-10-15T07:17:35;52.93;;;14.60;;
65315;SDS011;51920;53.952;10.292;2022-10-15T07:20:00;54.00;;;14.70;;
65315;SDS011;51920;53.952;10.292;2022-10-15T07:22:25;57.93;;;15.53;;
65315;SDS011;51920;53.952;10.292;2022-10-15T07:24:51;51.33;;;14.65;;
65315;SDS011;51920;53.952;10.292;2022-10-15T07:27:17;51.80;;;14.53;;
65315;SDS011;51920;53.952;10.292;2022-10-15T07:29:42;65.90;;;15.63;;
65315;SDS011;51920;53.952;10.292;2022-10-15T07:32:07;66.77;;;16.70;;
65315;SDS011;51920;53.952;10.292;2022-10-15T07:34:33;58.17;;;15.80;;
65315;SDS011;51920;53.952;10.292;2022-10-15T07:36:58;58.47;;;16.27;;
65315;SDS011;51920;53.952;10.292;2022-10-15T07:39:24;64.40;;;16.50;;
65315;SDS011;51920;53.952;10.292;2022-10-15T07:41:49;57.17;;;14.97;;
65315;SDS011;51920;53.952;10.292;2022-10-15T07:44:14;58.83;;;15.93;;
65315;SDS011;51920;53.952;10.292;2022-10-15T07:46:40;54.85;;;15.43;;
65315;SDS011;51920;53.952;10.292;2022-10-15T07:49:05;57.37;;;14.90;;
65315;SDS011;51920;53.952;10.292;2022-10-15T07:51:31;64.33;;;15.63;;
65315;SDS011;51920;53.952;10.292;2022-10-15T07:53:56;55.47;;;15.03;;
65315;SDS011;51920;53.952;10.292;2022-10-15T07:56:21;61.93;;;16.40;;
65315;SDS011;51920;53.952;10.292;2022-10-15T07:58:47;61.13;;;16.30;;
65315;SDS011;51920;53.952;10.292;2022-10-15T08:01:16;56.07;;;15.30;;
65315;SDS011;51920;53.952;10.292;2022-10-15T08:03:42;57.42;;;15.70;;
65315;SDS011;51920;53.952;10.292;2022-10-15T08:06:07;63.80;;;16.17;;
65315;SDS011;51920;53.952;10.292;2022-10-15T08:08:33;57.33;;;15.67;;
65315;SDS011;51920;53.952;10.292;2022-10-15T08:11:03;62.47;;;16.75;;
65315;SDS011;51920;53.952;10.292;2022-10-15T08:13:33;54.10;;;15.93;;
65315;SDS011;51920;53.952;10.292;2022-10-15T08:15:59;58.92;;;17.88;;
65315;SDS011;51920;53.952;10.292;2022-10-15T08:18:24;64.30;;;18.07;;
65315;SDS011;51920;53.952;10.292;2022-10-15T08:20:51;56.08;;;16.73;;
65315;SDS011;51920;53.952;10.292;2022-10-15T08:23:16;57.97;;;16.63;;
65315;SDS011;51920;53.952;10.292;2022-10-15T08:25:42;52.58;;;16.77;;
65315;SDS011;51920;53.952;10.292;2022-10-15T08:28:10;56.27;;;16.33;;
65315;SDS011;51920;53.952;10.292;2022-10-15T08:30:36;57.92;;;16.77;;
65315;SDS011;51920;53.952;10.292;2022-10-15T08:33:08;56.20;;;17.05;;
65315;SDS011;51920;53.952;10.292;2022-10-15T08:35:34;57.63;;;17.10;;
65315;SDS011;51920;53.952;10.292;2022-10-15T08:38:03;55.53;;;17.50;;
65315;SDS011;51920;53.952;10.292;2022-10-15T08:40:31;59.50;;;19.23;;
65315;SDS011;51920;53.952;10.292;2022-10-15T08:42:56;59.77;;;17.90;;
65315;SDS011;51920;53.952;10.292;2022-10-15T08:45:29;55.42;;;17.42;;
65315;SDS011;51920;53.952;10.292;2022-10-15T08:48:05;60.15;;;17.90;;
65315;SDS011;51920;53.952;10.292;2022-10-15T08:53:25;52.17;;;16.42;;
65315;SDS011;51920;53.952;10.292;2022-10-15T08:55:54;52.28;;;16.80;;
65315;SDS011;51920;53.952;10.292;2022-10-15T08:58:28;54.20;;;17.35;;
65315;SDS011;51920;53.952;10.292;2022-10-15T09:01:31;55.33;;;18.15;;
65315;SDS011;51920;53.952;10.292;2022-10-15T09:04:13;58.80;;;18.50;;
65315;SDS011;51920;53.952;10.292;2022-10-15T09:06:46;54.38;;;17.50;;
65315;SDS011;51920;53.952;10.292;2022-10-15T09:09:21;54.45;;;17.13;;
65315;SDS011;51920;53.952;10.292;2022-10-15T09:14:29;48.58;;;16.85;;
65315;SDS011;51920;53.952;10.292;2022-10-15T09:16:58;52.17;;;17.70;;
65315;SDS011;51920;53.952;10.292;2022-10-15T09:19:28;46.17;;;16.50;;
65315;SDS011;51920;53.952;10.292;2022-10-15T09:21:55;47.35;;;16.20;;
65315;SDS011;51920;53.952;10.292;2022-10-15T09:24:26;45.67;;;15.48;;
65315;SDS011;51920;53.952;10.292;2022-10-15T09:35:51;36.17;;;14.45;;
65315;SDS011;51920;53.952;10.292;2022-10-15T09:43:42;35.80;;;14.07;;
65315;SDS011;51920;53.952;10.292;2022-10-15T09:46:10;34.72;;;14.95;;
65315;SDS011;51920;53.952;10.292;2022-10-15T09:48:39;32.95;;;14.23;;
65315;SDS011;51920;53.952;10.292;2022-10-15T09:51:24;36.90;;;14.55;;
65315;SDS011;51920;53.952;10.292;2022-10-15T09:56:26;39.03;;;15.13;;
65315;SDS011;51920;53.952;10.292;2022-10-15T09:58:59;30.48;;;13.35;;
65315;SDS011;51920;53.952;10.292;2022-10-15T10:01:25;30.47;;;13.47;;
65315;SDS011;51920;53.952;10.292;2022-10-15T10:03:54;32.92;;;14.10;;
65315;SDS011;51920;53.952;10.292;2022-10-15T10:06:41;30.23;;;13.52;;
65315;SDS011;51920;53.952;10.292;2022-10-15T10:09:13;30.08;;;13.15;;
65315;SDS011;51920;53.952;10.292;2022-10-15T10:11:47;27.58;;;13.45;;
65315;SDS011;51920;53.952;10.292;2022-10-15T10:14:32;28.10;;;12.87;;
65315;SDS011;51920;53.952;10.292;2022-10-15T10:17:19;27.25;;;12.15;;
65315;SDS011;51920;53.952;10.292;2022-10-15T10:22:44;25.10;;;12.05;;
65315;SDS011;51920;53.952;10.292;2022-10-15T10:27:52;23.83;;;11.70;;
65315;SDS011;51920;53.952;10.292;2022-10-15T10:30:19;21.52;;;11.43;;
65315;SDS011;51920;53.952;10.292;2022-10-15T10:32:47;23.60;;;11.35;;
65315;SDS011;51920;53.952;10.292;2022-10-15T10:35:20;25.05;;;11.07;;
65315;SDS011;51920;53.952;10.292;2022-10-15T10:37:48;23.35;;;11.63;;
65315;SDS011;51920;53.952;10.292;2022-10-15T10:40:31;22.07;;;11.83;;
65315;SDS011;51920;53.952;10.292;2022-10-15T10:45:36;22.40;;;11.65;;
65315;SDS011;51920;53.952;10.292;2022-10-15T10:48:18;21.77;;;11.87;;
65315;SDS011;51920;53.952;10.292;2022-10-15T10:50:45;22.75;;;12.10;;
65315;SDS011;51920;53.952;10.292;2022-10-15T10:53:22;19.92;;;11.10;;
65315;SDS011;51920;53.952;10.292;2022-10-15T10:55:49;20.17;;;10.15;;
65315;SDS011;51920;53.952;10.292;2022-10-15T10:58:21;22.07;;;10.90;;
65315;SDS011;51920;53.952;10.292;2022-10-15T11:00:48;19.02;;;10.18;;
65315;SDS011;51920;53.952;10.292;2022-10-15T11:03:28;19.73;;;10.15;;
65315;SDS011;51920;53.952;10.292;2022-10-15T11:08:41;21.48;;;10.77;;
65315;SDS011;51920;53.952;10.292;2022-10-15T11:11:17;17.30;;;10.07;;
65315;SDS011;51920;53.952;10.292;2022-10-15T11:19:17;19.88;;;10.30;;
65315;SDS011;51920;53.952;10.292;2022-10-15T11:22:14;17.27;;;9.30;;
65315;SDS011;51920;53.952;10.292;2022-10-15T11:25:07;15.73;;;9.30;;
65315;SDS011;51920;53.952;10.292;2022-10-15T11:27:50;15.07;;;8.48;;
65315;SDS011;51920;53.952;10.292;2022-10-15T11:33:19;17.20;;;8.73;;
65315;SDS011;51920;53.952;10.292;2022-10-15T11:44:38;15.32;;;8.80;;
65315;SDS011;51920;53.952;10.292;2022-10-15T11:47:20;15.75;;;8.23;;
65315;SDS011;51920;53.952;10.292;2022-10-15T11:58:33;15.75;;;7.47;;
65315;SDS011;51920;53.952;10.292;2022-10-15T12:01:04;17.02;;;8.13;;
65315;SDS011;51920;53.952;10.292;2022-10-15T12:03:38;15.05;;;8.07;;
65315;SDS011;51920;53.952;10.292;2022-10-15T12:06:10;16.43;;;8.40;;
65315;SDS011;51920;53.952;10.292;2022-10-15T12:08:40;15.18;;;7.78;;
65315;SDS011;51920;53.952;10.292;2022-10-15T12:13:43;13.02;;;7.20;;
65315;SDS011;51920;53.952;10.292;2022-10-15T12:21:40;13.23;;;7.20;;
65315;SDS011;51920;53.952;10.292;2022-10-15T12:24:52;12.35;;;7.18;;
65315;SDS011;51920;53.952;10.292;2022-10-15T12:27:38;11.55;;;6.78;;
65315;SDS011;51920;53.952;10.292;2022-10-15T12:32:35;12.13;;;6.67;;
65315;SDS011;51920;53.952;10.292;2022-10-15T12:35:25;11.38;;;6.88;;
65315;SDS011;51920;53.952;10.292;2022-10-15T12:37:56;10.95;;;6.47;;
65315;SDS011;51920;53.952;10.292;2022-10-15T12:40:34;11.43;;;6.68;;
65315;SDS011;51920;53.952;10.292;2022-10-15T12:43:10;10.52;;;6.72;;
65315;SDS011;51920;53.952;10.292;2022-10-15T12:45:51;9.97;;;6.57;;
65315;SDS011;51920;53.952;10.292;2022-10-15T12:53:48;10.43;;;6.00;;
65315;SDS011;51920;53.952;10.292;2022-10-15T12:56:23;10.35;;;5.88;;
65315;SDS011;51920;53.952;10.292;2022-10-15T12:58:59;9.10;;;6.03;;
65315;SDS011;51920;53.952;10.292;2022-10-15T13:01:28;11.35;;;6.53;;
65315;SDS011;51920;53.952;10.292;2022-10-15T13:04:14;10.32;;;6.00;;
65315;SDS011;51920;53.952;10.292;2022-10-15T13:06:40;10.37;;;5.70;;
65315;SDS011;51920;53.952;10.292;2022-10-15T13:17:01;8.75;;;5.38;;
65315;SDS011;51920;53.952;10.292;2022-10-15T13:19:39;7.07;;;4.60;;
65315;SDS011;51920;53.952;10.292;2022-10-15T13:22:27;6.70;;;4.38;;
65315;SDS011;51920;53.952;10.292;2022-10-15T13:24:54;6.10;;;4.03;;
65315;SDS011;51920;53.952;10.292;2022-10-15T13:27:24;5.60;;;3.60;;
65315;SDS011;51920;53.952;10.292;2022-10-15T13:30:00;6.15;;;3.78;;
65315;SDS011;51920;53.952;10.292;2022-10-15T13:32:30;6.20;;;3.72;;
65315;SDS011;51920;53.952;10.292;2022-10-15T13:34:59;6.57;;;3.17;;
65315;SDS011;51920;53.952;10.292;2022-10-15T13:37:31;7.33;;;3.67;;
65315;SDS011;51920;53.952;10.292;2022-10-15T13:40:00;5.15;;;3.40;;
65315;SDS011;51920;53.952;10.292;2022-10-15T13:42:27;4.95;;;3.20;;
65315;SDS011;51920;53.952;10.292;2022-10-15T13:47:33;6.68;;;2.70;;
65315;SDS011;51920;53.952;10.292;2022-10-15T13:50:15;4.10;;;2.90;;
65315;SDS011;51920;53.952;10.292;2022-10-15T13:52:42;5.75;;;3.00;;
65315;SDS011;51920;53.952;10.292;2022-10-15T13:55:22;4.88;;;3.00;;
65315;SDS011;51920;53.952;10.292;2022-10-15T13:57:50;5.40;;;2.50;;
65315;SDS011;51920;53.952;10.292;2022-10-15T14:00:23;5.65;;;3.00;;
65315;SDS011;51920;53.952;10.292;2022-10-15T14:05:31;5.60;;;3.10;;
65315;SDS011;51920;53.952;10.292;2022-10-15T14:07:57;5.00;;;2.97;;
65315;SDS011;51920;53.952;10.292;2022-10-15T14:10:22;5.60;;;3.50;;
65315;SDS011;51920;53.952;10.292;2022-10-15T14:12:48;6.72;;;3.30;;
65315;SDS011;51920;53.952;10.292;2022-10-15T14:18:31;4.47;;;3.20;;
65315;SDS011;51920;53.952;10.292;2022-10-15T14:20:59;5.53;;;3.10;;
65315;SDS011;51920;53.952;10.292;2022-10-15T14:23:25;5.15;;;3.28;;
65315;SDS011;51920;53.952;10.292;2022-10-15T14:25:56;7.07;;;3.25;;
65315;SDS011;51920;53.952;10.292;2022-10-15T14:28:24;5.75;;;3.25;;
65315;SDS011;51920;53.952;10.292;2022-10-15T14:30:51;5.37;;;3.27;;
65315;SDS011;51920;53.952;10.292;2022-10-15T14:33:30;6.18;;;3.33;;
65315;SDS011;51920;53.952;10.292;2022-10-15T14:36:03;4.65;;;3.13;;
65315;SDS011;51920;53.952;10.292;2022-10-15T14:38:29;7.22;;;3.75;;
65315;SDS011;51920;53.952;10.292;2022-10-15T14:41:02;4.67;;;3.50;;
65315;SDS011;51920;53.952;10.292;2022-10-15T14:43:32;5.53;;;3.47;;
65315;SDS011;51920;53.952;10.292;2022-10-15T14:45:59;4.50;;;3.20;;
65315;SDS011;51920;53.952;10.292;2022-10-15T14:48:32;5.40;;;3.40;;
65315;SDS011;51920;53.952;10.292;2022-10-15T14:51:02;5.93;;;3.70;;
65315;SDS011;51920;53.952;10.292;2022-10-15T14:53:31;6.22;;;3.30;;
65315;SDS011;51920;53.952;10.292;2022-10-15T14:56:02;5.55;;;3.20;;
65315;SDS011;51920;53.952;10.292;2022-10-15T14:58:33;6.45;;;3.25;;
65315;SDS011;51920;53.952;10.292;2022-10-15T15:01:02;7.18;;;3.53;;
65315;SDS011;51920;53.952;10.292;2022-10-15T15:03:37;6.57;;;3.20;;
65315;SDS011;51920;53.952;10.292;2022-10-15T15:06:08;6.22;;;3.13;;
65315;SDS011;51920;53.952;10.292;2022-10-15T15:08:33;5.18;;;3.40;;
65315;SDS011;51920;53.952;10.292;2022-10-15T15:11:01;5.63;;;3.20;;
65315;SDS011;51920;53.952;10.292;2022-10-15T15:13:30;5.50;;;3.20;;
65315;SDS011;51920;53.952;10.292;2022-10-15T15:16:01;5.05;;;3.30;;
65315;SDS011;51920;53.952;10.292;2022-10-15T15:18:27;4.85;;;3.20;;
65315;SDS011;51920;53.952;10.292;2022-10-15T15:20:53;6.47;;;3.37;;
65315;SDS011;51920;53.952;10.292;2022-10-15T15:23:23;6.80;;;3.60;;
65315;SDS011;51920;53.952;10.292;2022-10-15T15:25:51;4.90;;;3.50;;
65315;SDS011;51920;53.952;10.292;2022-10-15T15:28:19;8.05;;;5.68;;
65315;SDS011;51920;53.952;10.292;2022-10-15T15:30:49;8.57;;;5.47;;
65315;SDS011;51920;53.952;10.292;2022-10-15T15:33:20;7.00;;;5.07;;
65315;SDS011;51920;53.952;10.292;2022-10-15T15:35:52;5.73;;;4.43;;
65315;SDS011;51920;53.952;10.292;2022-10-15T15:38:21;5.28;;;4.50;;
65315;SDS011;51920;53.952;10.292;2022-10-15T15:40:58;7.13;;;4.07;;
65315;SDS011;51920;53.952;10.292;2022-10-15T15:43:28;5.53;;;4.00;;
65315;SDS011;51920;53.952;10.292;2022-10-15T15:45:54;6.50;;;4.33;;
65315;SDS011;51920;53.952;10.292;2022-10-15T15:48:19;5.63;;;4.00;;
65315;SDS011;51920;53.952;10.292;2022-10-15T15:50:45;5.60;;;4.03;;
65315;SDS011;51920;53.952;10.292;2022-10-15T15:53:11;8.10;;;4.25;;
65315;SDS011;51920;53.952;10.292;2022-10-15T15:55:36;6.05;;;4.13;;
65315;SDS011;51920;53.952;10.292;2022-10-15T15:58:02;6.47;;;4.33;;
65315;SDS011;51920;53.952;10.292;2022-10-15T16:00:27;6.57;;;4.60;;
65315;SDS011;51920;53.952;10.292;2022-10-15T16:02:53;8.43;;;4.70;;
65315;SDS011;51920;53.952;10.292;2022-10-15T16:05:19;7.33;;;4.93;;
65315;SDS011;51920;53.952;10.292;2022-10-15T16:07:44;7.53;;;4.67;;
65315;SDS011;51920;53.952;10.292;2022-10-15T16:10:10;7.40;;;5.57;;
65315;SDS011;51920;53.952;10.292;2022-10-15T16:12:39;9.07;;;5.60;;
65315;SDS011;51920;53.952;10.292;2022-10-15T16:15:07;8.27;;;5.63;;
65315;SDS011;51920;53.952;10.292;2022-10-15T16:17:33;8.55;;;6.15;;
65315;SDS011;51920;53.952;10.292;2022-10-15T16:19:59;8.48;;;6.13;;